Time;durP1;ratioP1;P1;durP2;ratioP2;P2;SDS_P1;SDS_P2;PMS_P1;PMS_P2;Temp;Humidity;BMP_temperature;BMP_pressure;BME280_temperature;BME280_humidity;BME280_pressure;Samples;Min_cycle;Max_cycle;Signal;HPM_P1;HPM_P2
2022/02/14 00:00:35;;;;;;;62.42;50.90;;;28.60;81.80;;;;;;4982831;28;20326;-46
2022/02/14 00:03:02;;;;;;;32.85;22.95;;;28.60;81.70;;;;;;4982453;28;20114;-51
2022/02/14 00:05:31;;;;;;;20.23;14.75;;;28.60;81.60;;;;;;4981285;28;20046;-50
2022/02/14 00:07:58;;;;;;;17.98;12.13;;;28.60;81.60;;;;;;4976815;28;20031;-54
2022/02/14 00:10:25;;;;;;;15.85;10.95;;;28.60;81.70;;;;;;4971064;28;20054;-49
2022/02/14 00:12:52;;;;;;;19.83;10.38;;;28.60;81.70;;;;;;4973742;28;20046;-44
2022/02/14 00:15:19;;;;;;;13.35;8.30;;;28.50;81.50;;;;;;4976023;28;20033;-45
2022/02/14 00:17:47;;;;;;;11.80;7.78;;;28.50;81.40;;;;;;4964148;28;20298;-46
2022/02/14 00:20:14;;;;;;;13.25;7.88;;;28.50;81.40;;;;;;4982010;28;20027;-46
2022/02/14 00:22:40;;;;;;;12.43;7.25;;;28.50;81.10;;;;;;4981535;28;20023;-45
2022/02/14 00:25:07;;;;;;;11.40;7.25;;;28.50;81.00;;;;;;4982234;28;20018;-45
2022/02/14 00:27:34;;;;;;;12.52;7.00;;;28.50;80.80;;;;;;4976992;28;20022;-45
2022/02/14 00:30:01;;;;;;;15.15;7.50;;;28.50;80.70;;;;;;4965748;28;20283;-47
2022/02/14 00:32:29;;;;;;;15.00;7.00;;;28.50;80.60;;;;;;4979558;28;20215;-49
2022/02/14 00:34:56;;;;;;;12.15;6.75;;;28.40;80.30;;;;;;4981465;28;20319;-44
2022/02/14 00:37:22;;;;;;;12.10;7.25;;;28.40;80.00;;;;;;4982106;28;20062;-45
2022/02/14 00:39:49;;;;;;;15.68;7.13;;;28.40;79.90;;;;;;4982155;28;20159;-52
2022/02/14 00:42:16;;;;;;;16.33;7.82;;;28.40;79.70;;;;;;4982242;28;20314;-50
2022/02/14 00:44:43;;;;;;;19.83;9.70;;;28.40;79.50;;;;;;4982581;28;20037;-44
2022/02/14 00:47:09;;;;;;;23.83;9.18;;;28.40;79.40;;;;;;4982358;28;20038;-51
2022/02/14 00:49:36;;;;;;;20.15;8.23;;;28.40;79.10;;;;;;4981866;28;20045;-47
2022/02/14 00:52:03;;;;;;;20.02;8.50;;;28.40;79.10;;;;;;4982286;28;20333;-45
2022/02/14 00:54:30;;;;;;;17.13;9.18;;;28.40;78.90;;;;;;4982136;28;20282;-49
2022/02/14 00:56:56;;;;;;;14.20;7.78;;;28.40;78.80;;;;;;4979862;28;20073;-49
2022/02/14 00:59:23;;;;;;;13.70;7.03;;;28.30;78.70;;;;;;4995257;28;20088;-51
2022/02/14 01:01:50;;;;;;;18.90;7.68;;;28.30;78.50;;;;;;5035073;28;20048;-44
2022/02/14 01:04:17;;;;;;;16.85;7.30;;;28.30;78.40;;;;;;5034252;28;20019;-46
2022/02/14 01:06:44;;;;;;;14.05;7.07;;;28.30;78.40;;;;;;5027316;28;20038;-44
2022/02/14 01:09:10;;;;;;;11.05;6.38;;;28.30;78.20;;;;;;5035390;28;20016;-42
2022/02/14 01:11:38;;;;;;;13.80;6.07;;;28.30;78.00;;;;;;5038228;28;20027;-47
2022/02/14 01:14:07;;;;;;;10.05;6.07;;;28.30;77.80;;;;;;5030653;28;20026;-47
2022/02/14 01:16:34;;;;;;;16.08;6.20;;;28.30;77.80;;;;;;5035482;28;20031;-50
2022/02/14 01:19:00;;;;;;;12.65;6.47;;;28.30;77.90;;;;;;5030376;28;20019;-49
2022/02/14 01:21:28;;;;;;;13.13;6.15;;;28.20;78.00;;;;;;5067384;28;20336;-49
2022/02/14 01:23:58;;;;;;;18.25;6.60;;;28.20;78.00;;;;;;5030631;28;20214;-44
2022/02/14 01:26:24;;;;;;;13.75;6.07;;;28.20;78.00;;;;;;4976314;28;20362;-47
2022/02/14 01:28:51;;;;;;;10.23;5.88;;;28.20;78.10;;;;;;4979301;28;20050;-49
2022/02/14 01:31:18;;;;;;;10.43;6.05;;;28.20;78.30;;;;;;4979436;28;20023;-53
2022/02/14 01:33:44;;;;;;;12.50;6.43;;;28.20;78.20;;;;;;4984489;28;20034;-47
2022/02/14 01:36:11;;;;;;;15.52;6.30;;;28.20;78.30;;;;;;4985159;28;20023;-49
2022/02/14 01:38:38;;;;;;;12.07;6.43;;;28.10;78.30;;;;;;5000226;28;20027;-48
2022/02/14 01:41:05;;;;;;;18.35;6.65;;;28.20;78.50;;;;;;5058325;28;20207;-44
2022/02/14 01:43:31;;;;;;;360.92;31.05;;;28.10;78.90;;;;;;5024346;28;20337;-46
2022/02/14 01:45:58;;;;;;;89.68;12.98;;;28.20;78.90;;;;;;4984858;28;20054;-46
2022/02/14 01:48:25;;;;;;;62.05;9.60;;;28.10;78.60;;;;;;4978452;28;20217;-45
2022/02/14 01:50:51;;;;;;;40.92;8.23;;;28.10;78.50;;;;;;4984829;28;20031;-48
2022/02/14 01:53:18;;;;;;;93.03;11.30;;;28.10;78.30;;;;;;4984586;28;20053;-46
2022/02/14 01:55:45;;;;;;;357.52;31.35;;;28.10;78.10;;;;;;4984272;28;20035;-50
2022/02/14 01:58:12;;;;;;;44.47;8.05;;;28.10;77.60;;;;;;4983393;28;20314;-52
2022/02/14 02:00:38;;;;;;;31.77;7.70;;;28.10;77.50;;;;;;4984355;28;20034;-46
2022/02/14 02:03:05;;;;;;;18.65;6.18;;;28.10;77.30;;;;;;4984394;28;20042;-51
2022/02/14 02:05:33;;;;;;;21.52;5.90;;;28.10;76.90;;;;;;4984511;28;20027;-48
2022/02/14 02:08:00;;;;;;;17.13;5.72;;;28.00;76.70;;;;;;4984627;28;20310;-53
2022/02/14 02:10:27;;;;;;;10.73;5.82;;;28.00;76.30;;;;;;4983938;28;20050;-44
2022/02/14 02:12:56;;;;;;;13.45;5.50;;;28.00;76.50;;;;;;4983554;28;20029;-44
2022/02/14 02:15:23;;;;;;;11.13;6.03;;;28.00;76.10;;;;;;4977141;28;20022;-45
2022/02/14 02:17:50;;;;;;;10.40;5.35;;;28.00;75.70;;;;;;4964808;28;20077;-47
2022/02/14 02:20:18;;;;;;;11.68;5.63;;;28.00;75.70;;;;;;4991299;28;20015;-53
2022/02/14 02:22:48;;;;;;;9.98;5.35;;;28.00;75.60;;;;;;4984387;28;20029;-45
2022/02/14 02:25:15;;;;;;;11.15;5.03;;;28.00;75.50;;;;;;4982354;28;20326;-45
2022/02/14 02:27:43;;;;;;;7.88;5.18;;;28.00;75.20;;;;;;4983960;28;20318;-44
2022/02/14 02:30:12;;;;;;;10.43;5.38;;;28.00;75.10;;;;;;4983912;28;20018;-50
2022/02/14 02:32:40;;;;;;;38.47;33.05;;;28.00;75.00;;;;;;4983910;28;20311;-46
2022/02/14 02:35:08;;;;;;;14.68;12.80;;;27.90;75.00;;;;;;4983878;28;20014;-46
2022/02/14 02:37:35;;;;;;;17.45;15.05;;;27.90;75.20;;;;;;4982870;28;20214;-49
2022/02/14 02:40:02;;;;;;;15.05;10.75;;;27.90;75.10;;;;;;4983528;28;20023;-44
2022/02/14 02:42:29;;;;;;;16.80;8.45;;;27.90;75.10;;;;;;4983667;28;20035;-46
2022/02/14 02:44:55;;;;;;;10.30;6.63;;;27.90;75.20;;;;;;4983813;28;20042;-47
2022/02/14 02:47:24;;;;;;;11.18;6.43;;;27.90;75.30;;;;;;4983917;28;20046;-48
2022/02/14 02:49:51;;;;;;;9.82;5.85;;;27.80;75.30;;;;;;4983234;28;20205;-48
2022/02/14 02:52:19;;;;;;;10.20;5.90;;;27.90;75.90;;;;;;4984085;28;20229;-44
2022/02/14 02:54:47;;;;;;;10.85;5.30;;;27.90;75.60;;;;;;4983194;28;20019;-46
2022/02/14 02:57:14;;;;;;;7.88;5.40;;;27.80;76.00;;;;;;4983550;28;20030;-46
2022/02/14 02:59:43;;;;;;;13.57;5.45;;;27.80;75.90;;;;;;4983627;28;20023;-46
2022/02/14 03:02:10;;;;;;;10.52;5.65;;;27.80;75.60;;;;;;4983352;28;20228;-48
2022/02/14 03:04:36;;;;;;;7.55;5.15;;;27.80;75.60;;;;;;4983499;28;20031;-43
2022/02/14 03:07:04;;;;;;;9.52;5.20;;;27.80;75.40;;;;;;4983355;28;20026;-43
2022/02/14 03:09:30;;;;;;;22.60;16.25;;;27.80;75.30;;;;;;4983062;28;20018;-43
2022/02/14 03:11:57;;;;;;;27.83;25.05;;;27.80;75.00;;;;;;4983770;28;20035;-44
2022/02/14 03:14:24;;;;;;;30.40;26.27;;;27.80;75.00;;;;;;4983339;28;20023;-43
2022/02/14 03:16:51;;;;;;;17.00;11.23;;;27.70;75.00;;;;;;4983130;28;20031;-44
2022/02/14 03:19:17;;;;;;;12.23;9.65;;;27.70;74.60;;;;;;4983348;28;20027;-42
2022/02/14 03:21:44;;;;;;;13.52;7.85;;;27.70;74.80;;;;;;4983107;28;20302;-44
2022/02/14 03:24:13;;;;;;;10.23;6.57;;;27.70;74.80;;;;;;4983141;28;20038;-42
2022/02/14 03:26:39;;;;;;;9.00;6.03;;;27.70;74.70;;;;;;4983434;28;20192;-52
2022/02/14 03:29:06;;;;;;;9.52;5.13;;;27.70;74.60;;;;;;4978784;28;20015;-45
2022/02/14 03:31:32;;;;;;;10.40;4.65;;;27.70;74.40;;;;;;4972441;28;20031;-45
2022/02/14 03:33:59;;;;;;;9.55;4.75;;;27.70;74.30;;;;;;4963777;29;20045;-45
2022/02/14 03:36:26;;;;;;;7.78;4.57;;;27.70;74.20;;;;;;4964058;29;20032;-43
2022/02/14 03:38:52;;;;;;;6.45;4.85;;;27.70;74.30;;;;;;4963534;28;20019;-45
2022/02/14 03:41:20;;;;;;;8.85;4.93;;;27.70;74.40;;;;;;4963289;29;20031;-54
2022/02/14 03:43:46;;;;;;;10.68;4.50;;;27.70;74.40;;;;;;4967193;28;20038;-44
2022/02/14 03:46:13;;;;;;;10.52;4.53;;;27.70;74.20;;;;;;4972144;28;20031;-50
2022/02/14 03:48:40;;;;;;;10.15;4.55;;;27.70;74.30;;;;;;4963616;29;20019;-45
2022/02/14 03:51:07;;;;;;;6.88;4.30;;;27.70;74.30;;;;;;4963545;28;20070;-44
2022/02/14 03:53:33;;;;;;;11.30;4.65;;;27.70;74.90;;;;;;4963433;29;20020;-46
2022/02/14 03:56:00;;;;;;;12.30;4.80;;;27.70;74.80;;;;;;4979542;28;20408;-43
2022/02/14 03:58:27;;;;;;;11.48;4.68;;;27.60;74.90;;;;;;4982781;28;20034;-44
2022/02/14 04:00:54;;;;;;;6.22;4.65;;;27.60;75.30;;;;;;4982661;28;20187;-48
2022/02/14 04:03:20;;;;;;;7.07;4.78;;;27.60;75.20;;;;;;4982962;28;20271;-51
2022/02/14 04:05:47;;;;;;;12.25;4.75;;;27.60;75.40;;;;;;4982594;28;20034;-50
2022/02/14 04:08:14;;;;;;;13.25;10.75;;;27.60;75.30;;;;;;4971268;28;20030;-52
2022/02/14 04:10:40;;;;;;;82.72;74.53;;;27.60;75.40;;;;;;4981496;28;20229;-48
2022/02/14 04:13:08;;;;;;;43.38;39.33;;;27.70;75.10;;;;;;4982621;28;20022;-47
2022/02/14 04:15:35;;;;;;;21.02;15.35;;;27.70;75.10;;;;;;4976707;28;20072;-49
2022/02/14 04:18:02;;;;;;;12.50;10.57;;;27.70;75.10;;;;;;4982181;28;20022;-46
2022/02/14 04:20:28;;;;;;;11.63;8.65;;;27.60;74.90;;;;;;4982511;28;20094;-51
2022/02/14 04:22:55;;;;;;;9.82;8.15;;;27.70;75.10;;;;;;4982254;28;20027;-52
2022/02/14 04:25:21;;;;;;;8.48;6.82;;;27.70;75.00;;;;;;4982232;28;20086;-44
2022/02/14 04:27:48;;;;;;;8.43;5.57;;;27.70;74.90;;;;;;4982332;28;20031;-49
2022/02/14 04:30:15;;;;;;;9.02;5.35;;;27.70;74.80;;;;;;4978875;28;20018;-47
2022/02/14 04:32:42;;;;;;;7.85;4.90;;;27.70;75.00;;;;;;4971180;28;20070;-44
2022/02/14 04:35:10;;;;;;;8.05;5.50;;;27.70;75.10;;;;;;4962830;28;20039;-48
2022/02/14 04:37:36;;;;;;;22.70;5.55;;;27.60;75.20;;;;;;4981528;28;20034;-51
2022/02/14 04:40:04;;;;;;;6.68;4.70;;;27.60;75.20;;;;;;4979973;28;20094;-48
2022/02/14 04:42:30;;;;;;;7.07;4.75;;;27.60;75.20;;;;;;4974622;28;20068;-49
2022/02/14 04:44:57;;;;;;;10.15;4.93;;;27.60;75.10;;;;;;4970255;28;20095;-45
2022/02/14 04:47:24;;;;;;;10.30;4.72;;;27.60;75.10;;;;;;4982377;28;20031;-46
2022/02/14 04:49:50;;;;;;;8.27;4.60;;;27.60;75.10;;;;;;4981743;28;20214;-47
2022/02/14 04:52:17;;;;;;;6.03;4.32;;;27.60;75.10;;;;;;4982551;28;20022;-53
2022/02/14 04:54:44;;;;;;;6.65;4.55;;;27.60;75.10;;;;;;4981587;28;20019;-49
2022/02/14 04:57:10;;;;;;;6.28;4.47;;;27.50;74.90;;;;;;4982469;28;20035;-48
2022/02/14 04:59:37;;;;;;;8.77;4.88;;;27.50;75.00;;;;;;4981999;28;20023;-48
2022/02/14 05:02:03;;;;;;;6.15;4.60;;;27.50;75.10;;;;;;4981743;28;20065;-53
2022/02/14 05:04:30;;;;;;;6.05;4.47;;;27.50;74.90;;;;;;4981965;28;20210;-49
2022/02/14 05:06:57;;;;;;;6.97;4.32;;;27.50;74.90;;;;;;4982272;28;20035;-47
2022/02/14 05:09:23;;;;;;;7.68;4.32;;;27.50;75.10;;;;;;4981445;28;20037;-50
2022/02/14 05:11:50;;;;;;;6.40;4.38;;;27.50;75.00;;;;;;4982221;28;20030;-54
2022/02/14 05:14:17;;;;;;;11.98;4.75;;;27.50;75.00;;;;;;4981826;28;20015;-48
2022/02/14 05:16:43;;;;;;;9.38;4.90;;;27.50;75.00;;;;;;4981995;28;20031;-52
2022/02/14 05:19:10;;;;;;;6.43;4.25;;;27.50;75.00;;;;;;4981745;28;20038;-46
2022/02/14 05:21:37;;;;;;;7.95;4.45;;;27.40;74.90;;;;;;4982055;28;20033;-55
2022/02/14 05:24:03;;;;;;;6.82;4.47;;;27.40;74.90;;;;;;4982270;28;20050;-48
2022/02/14 05:26:30;;;;;;;7.10;4.30;;;27.40;74.90;;;;;;4981859;28;20316;-48
2022/02/14 05:28:57;;;;;;;8.55;4.18;;;27.40;74.90;;;;;;4981436;28;20076;-49
2022/02/14 05:31:26;;;;;;;6.50;4.28;;;27.40;74.90;;;;;;4981890;28;20098;-51
2022/02/14 05:33:52;;;;;;;8.57;4.18;;;27.40;74.80;;;;;;4981953;28;20188;-49
2022/02/14 05:36:19;;;;;;;7.53;4.43;;;27.40;74.80;;;;;;4981660;28;20341;-49
2022/02/14 05:38:46;;;;;;;5.78;4.40;;;27.40;74.90;;;;;;4981775;28;20023;-46
2022/02/14 05:41:13;;;;;;;7.97;4.50;;;27.30;74.90;;;;;;4981706;28;20070;-48
2022/02/14 05:43:40;;;;;;;6.40;4.20;;;27.40;74.90;;;;;;4981639;28;20027;-46
2022/02/14 05:46:25;;;;;;;6.93;4.35;;;27.40;75.00;;;;;;4981666;28;20027;-45
2022/02/14 05:48:51;;;;;;;9.70;4.30;;;27.30;75.00;;;;;;4981297;28;20330;-48
2022/02/14 05:51:18;;;;;;;7.60;4.38;;;27.30;75.00;;;;;;4981620;28;20031;-44
2022/02/14 05:53:45;;;;;;;9.48;4.50;;;27.30;75.20;;;;;;4981282;28;20060;-48
2022/02/14 05:56:13;;;;;;;9.70;4.63;;;27.30;75.20;;;;;;4984450;28;20026;-45
2022/02/14 05:58:40;;;;;;;9.35;4.63;;;27.30;75.20;;;;;;4984791;28;20023;-48
2022/02/14 06:01:06;;;;;;;7.90;4.70;;;27.30;75.30;;;;;;4984494;28;20334;-50
2022/02/14 06:03:33;;;;;;;8.27;4.35;;;27.30;75.30;;;;;;4984689;28;20062;-45
2022/02/14 06:06:00;;;;;;;6.32;4.50;;;27.30;75.30;;;;;;4984712;28;20031;-46
2022/02/14 06:08:27;;;;;;;11.93;5.05;;;27.30;75.40;;;;;;4984334;28;20031;-51
2022/02/14 06:10:53;;;;;;;5.82;4.30;;;27.30;75.40;;;;;;4984599;28;20031;-49
2022/02/14 06:13:20;;;;;;;10.38;4.95;;;27.20;75.40;;;;;;4984467;28;20011;-50
2022/02/14 06:15:46;;;;;;;7.35;4.38;;;27.30;75.30;;;;;;4984407;28;20299;-49
2022/02/14 06:18:14;;;;;;;8.77;4.82;;;27.20;75.20;;;;;;4984329;28;20054;-45
2022/02/14 06:20:42;;;;;;;8.55;4.55;;;27.20;75.10;;;;;;4984246;28;20038;-50
2022/02/14 06:23:08;;;;;;;11.10;4.65;;;27.30;74.80;;;;;;4984091;28;20027;-50
2022/02/14 06:25:35;;;;;;;9.50;4.65;;;27.20;74.60;;;;;;4984305;28;20030;-48
2022/02/14 06:28:01;;;;;;;7.47;4.63;;;27.20;74.50;;;;;;4984176;28;20031;-50
2022/02/14 06:30:28;;;;;;;8.20;4.90;;;27.20;74.40;;;;;;4984116;28;20140;-47
2022/02/14 06:32:54;;;;;;;5.35;4.43;;;27.20;74.40;;;;;;4984165;28;20049;-46
2022/02/14 06:35:22;;;;;;;7.50;4.43;;;27.20;74.60;;;;;;4984016;28;20019;-45
2022/02/14 06:37:49;;;;;;;8.55;4.72;;;27.20;74.70;;;;;;4984280;28;20075;-52
2022/02/14 06:40:16;;;;;;;5.63;4.43;;;27.20;74.50;;;;;;4984312;28;20375;-51
2022/02/14 06:42:47;;;;;;;6.65;4.43;;;27.20;74.40;;;;;;4984062;28;20031;-44
2022/02/14 06:45:15;;;;;;;7.27;4.53;;;27.20;74.40;;;;;;4983840;28;20023;-45
2022/02/14 06:47:42;;;;;;;8.25;4.50;;;27.20;74.50;;;;;;4984183;28;20034;-47
2022/02/14 06:50:10;;;;;;;6.43;4.75;;;27.20;74.70;;;;;;4983852;28;20326;-46
2022/02/14 06:52:38;;;;;;;7.75;4.40;;;27.20;74.70;;;;;;4983870;28;20031;-48
2022/02/14 06:55:08;;;;;;;6.55;4.40;;;27.20;74.80;;;;;;4983896;28;20065;-52
2022/02/14 06:57:36;;;;;;;6.55;5.13;;;27.20;74.90;;;;;;4984418;28;20031;-46
2022/02/14 07:00:08;;;;;;;6.32;4.57;;;27.20;74.80;;;;;;4983694;28;20023;-48
2022/02/14 07:02:35;;;;;;;7.85;4.75;;;27.20;74.80;;;;;;4983786;28;20062;-47
2022/02/14 07:05:02;;;;;;;7.65;4.47;;;27.20;74.60;;;;;;4983699;28;20037;-48
2022/02/14 07:07:30;;;;;;;8.43;4.30;;;27.20;74.70;;;;;;4983432;28;20027;-47
2022/02/14 07:09:57;;;;;;;7.88;5.13;;;27.20;74.60;;;;;;4983654;28;20042;-48
2022/02/14 07:12:23;;;;;;;8.23;4.65;;;27.20;74.60;;;;;;4984056;28;20065;-49
2022/02/14 07:14:50;;;;;;;8.43;4.60;;;27.20;74.60;;;;;;4983562;28;20023;-56
2022/02/14 07:17:17;;;;;;;5.50;4.35;;;27.20;74.30;;;;;;4983869;28;20090;-47
2022/02/14 07:19:43;;;;;;;5.07;4.57;;;27.20;74.40;;;;;;4983392;28;20192;-50
2022/02/14 07:22:10;;;;;;;8.88;4.50;;;27.20;74.30;;;;;;4983673;28;20031;-52
2022/02/14 07:24:36;;;;;;;8.50;4.68;;;27.20;74.40;;;;;;4983397;28;20025;-49
2022/02/14 07:27:03;;;;;;;8.00;4.72;;;27.20;74.40;;;;;;4983684;28;20098;-47
2022/02/14 07:29:30;;;;;;;5.22;4.72;;;27.10;74.30;;;;;;4983173;28;20344;-51
2022/02/14 07:31:56;;;;;;;7.57;4.43;;;27.20;74.40;;;;;;4983875;28;20031;-47
2022/02/14 07:34:23;;;;;;;9.85;4.72;;;27.20;74.40;;;;;;4983357;28;20086;-50
2022/02/14 07:36:50;;;;;;;6.57;4.60;;;27.10;74.40;;;;;;4983383;28;20030;-48
2022/02/14 07:39:17;;;;;;;6.55;4.68;;;27.20;74.40;;;;;;4983233;28;20045;-53
2022/02/14 07:41:44;;;;;;;9.57;4.50;;;27.10;74.40;;;;;;4983741;28;20326;-57
2022/02/14 07:44:11;;;;;;;5.82;4.50;;;27.10;74.60;;;;;;4982917;28;20282;-47
2022/02/14 07:46:37;;;;;;;5.82;4.68;;;27.10;74.60;;;;;;4983975;28;20027;-48
2022/02/14 07:49:04;;;;;;;10.02;5.03;;;27.10;74.70;;;;;;4983126;28;20023;-47
2022/02/14 07:51:30;;;;;;;7.32;4.45;;;27.10;74.80;;;;;;4982983;28;20027;-47
2022/02/14 07:53:57;;;;;;;7.50;4.80;;;27.10;74.80;;;;;;4983276;28;20042;-48
2022/02/14 07:56:23;;;;;;;5.47;4.40;;;27.10;74.90;;;;;;4983233;28;20211;-51
2022/02/14 07:58:50;;;;;;;7.45;4.88;;;27.10;75.00;;;;;;4983014;28;20316;-47
2022/02/14 08:01:18;;;;;;;8.55;5.07;;;27.10;75.10;;;;;;4982736;28;20055;-47
2022/02/14 08:03:45;;;;;;;8.43;4.55;;;27.00;75.10;;;;;;4983464;28;20053;-48
2022/02/14 08:06:12;;;;;;;9.43;4.93;;;27.00;75.20;;;;;;4982539;28;20094;-50
2022/02/14 08:08:38;;;;;;;8.45;4.38;;;27.10;75.40;;;;;;4982800;28;20322;-48
2022/02/14 08:11:05;;;;;;;10.30;4.90;;;27.10;75.50;;;;;;4983107;28;20094;-52
2022/02/14 08:13:31;;;;;;;9.48;4.90;;;27.10;75.60;;;;;;4982658;28;20015;-48
2022/02/14 08:15:58;;;;;;;6.03;5.18;;;27.00;75.50;;;;;;4983165;28;20033;-49
2022/02/14 08:18:25;;;;;;;6.75;4.80;;;27.00;75.50;;;;;;4982235;28;20086;-50
2022/02/14 08:20:51;;;;;;;7.75;5.22;;;27.00;75.60;;;;;;4982504;28;20031;-51
2022/02/14 08:23:18;;;;;;;9.80;4.90;;;27.00;75.60;;;;;;4982524;28;20106;-47
2022/02/14 08:25:44;;;;;;;8.68;5.20;;;27.00;75.60;;;;;;4982574;28;20031;-47
2022/02/14 08:28:11;;;;;;;8.38;5.20;;;27.00;75.60;;;;;;4982351;28;20026;-45
2022/02/14 08:30:37;;;;;;;8.40;5.00;;;27.00;75.60;;;;;;4982813;28;20054;-48
2022/02/14 08:33:05;;;;;;;6.53;4.82;;;27.00;75.70;;;;;;4982336;28;20057;-50
2022/02/14 08:35:32;;;;;;;7.57;4.75;;;27.00;75.60;;;;;;4982728;28;20202;-48
2022/02/14 08:37:58;;;;;;;6.88;5.07;;;27.00;75.80;;;;;;4982320;28;20023;-47
2022/02/14 08:40:25;;;;;;;7.53;5.18;;;27.00;75.80;;;;;;4982405;28;20038;-48
2022/02/14 08:42:53;;;;;;;6.43;5.20;;;27.00;75.90;;;;;;4982573;28;20019;-46
2022/02/14 08:45:20;;;;;;;8.45;5.13;;;27.00;75.80;;;;;;4982266;28;20030;-47
2022/02/14 08:47:46;;;;;;;8.98;4.93;;;27.00;75.80;;;;;;4982265;28;20026;-51
2022/02/14 08:50:13;;;;;;;7.65;5.15;;;27.00;75.90;;;;;;4982082;28;20056;-45
2022/02/14 08:52:39;;;;;;;8.43;5.40;;;27.00;75.90;;;;;;4982049;28;20021;-52
2022/02/14 08:55:08;;;;;;;9.73;5.45;;;26.90;75.80;;;;;;4981964;28;20046;-50
2022/02/14 08:57:35;;;;;;;6.10;5.10;;;26.90;75.90;;;;;;4982366;28;20033;-48
2022/02/14 09:00:06;;;;;;;6.38;4.82;;;26.90;75.90;;;;;;4981867;28;20023;-48
2022/02/14 09:02:33;;;;;;;8.73;5.20;;;26.90;75.80;;;;;;4981912;28;20061;-47
2022/02/14 09:05:00;;;;;;;7.82;5.30;;;26.90;75.80;;;;;;4982193;28;20019;-51
2022/02/14 09:07:26;;;;;;;8.07;4.85;;;26.90;75.70;;;;;;4982437;28;20053;-47
2022/02/14 09:09:53;;;;;;;10.50;5.30;;;26.90;75.80;;;;;;4981987;28;20015;-49
2022/02/14 09:12:22;;;;;;;9.77;5.53;;;26.90;75.90;;;;;;4982466;28;20237;-48
2022/02/14 09:14:50;;;;;;;9.77;4.88;;;26.90;75.90;;;;;;4981727;28;20046;-50
2022/02/14 09:17:18;;;;;;;9.95;4.95;;;26.90;76.00;;;;;;4982214;28;20054;-51
2022/02/14 09:19:45;;;;;;;9.88;5.10;;;26.90;76.00;;;;;;4981757;28;20086;-45
2022/02/14 09:22:14;;;;;;;9.73;5.57;;;26.90;76.10;;;;;;4976634;28;20042;-47
2022/02/14 09:24:40;;;;;;;7.18;4.80;;;26.90;76.30;;;;;;4964879;28;20034;-51
2022/02/14 09:27:07;;;;;;;12.07;5.47;;;26.90;76.30;;;;;;4962747;28;20034;-48
2022/02/14 09:29:33;;;;;;;11.60;5.25;;;26.80;76.40;;;;;;4963000;28;20053;-49
2022/02/14 09:32:00;;;;;;;8.55;5.00;;;26.80;76.40;;;;;;4966168;28;20106;-55
2022/02/14 09:34:26;;;;;;;7.95;4.78;;;26.80;76.30;;;;;;4965746;28;20082;-47
2022/02/14 09:36:53;;;;;;;7.45;5.15;;;26.80;76.40;;;;;;4965490;28;20038;-44
2022/02/14 09:39:21;;;;;;;10.25;5.32;;;26.80;76.30;;;;;;4965891;28;20020;-48
2022/02/14 09:41:48;;;;;;;12.82;4.95;;;26.80;76.30;;;;;;4965940;28;20023;-46
2022/02/14 09:44:15;;;;;;;8.18;5.35;;;26.80;76.40;;;;;;4965489;28;20015;-46
2022/02/14 09:46:45;;;;;;;6.95;5.38;;;26.80;76.40;;;;;;4965782;28;20299;-47
2022/02/14 09:49:12;;;;;;;7.53;5.22;;;26.80;76.50;;;;;;4965475;28;20051;-46
2022/02/14 09:51:39;;;;;;;11.35;5.60;;;26.80;76.60;;;;;;4965770;28;20027;-45
2022/02/14 09:54:07;;;;;;;11.48;5.60;;;26.70;76.60;;;;;;4965520;28;20349;-49
2022/02/14 09:56:36;;;;;;;11.20;5.70;;;26.70;77.20;;;;;;4965617;28;20034;-46
2022/02/14 09:59:07;;;;;;;12.32;5.80;;;26.70;76.60;;;;;;4965201;28;20034;-49
2022/02/14 10:01:35;;;;;;;11.32;5.85;;;26.70;76.50;;;;;;4965241;28;20055;-46
2022/02/14 10:04:02;;;;;;;8.82;5.38;;;26.70;76.50;;;;;;4965104;28;20074;-49
2022/02/14 10:06:33;;;;;;;12.05;5.70;;;26.70;76.50;;;;;;4976390;28;20085;-51
2022/02/14 10:09:10;;;;;;;8.40;5.65;;;26.70;76.50;;;;;;4965265;28;20019;-52
2022/02/14 10:11:57;;;;;;;10.90;6.00;;;26.70;76.60;;;;;;4965446;28;20207;-48
2022/02/14 10:14:24;;;;;;;11.88;5.78;;;26.70;76.50;;;;;;4974977;28;20311;-47
2022/02/14 10:17:22;;;;;;;7.50;5.90;;;26.70;76.60;;;;;;4965190;28;20035;-46
2022/02/14 10:20:00;;;;;;;14.57;6.32;;;26.60;76.50;;;;;;4965020;28;20019;-44
2022/02/14 10:22:27;;;;;;;16.92;6.43;;;26.60;76.60;;;;;;4964872;28;20025;-54
2022/02/14 10:24:53;;;;;;;12.20;6.30;;;26.60;76.80;;;;;;4964893;29;20069;-50
2022/02/14 10:27:31;;;;;;;10.05;6.10;;;26.60;76.70;;;;;;4965094;29;20322;-47
2022/02/14 10:30:08;;;;;;;12.02;5.57;;;26.60;76.60;;;;;;4964919;28;20295;-57
2022/02/14 10:32:48;;;;;;;7.90;6.05;;;26.60;76.70;;;;;;4983050;28;20026;-47
2022/02/14 10:35:15;;;;;;;13.52;6.10;;;26.60;76.70;;;;;;4984220;28;20116;-51
2022/02/14 10:37:44;;;;;;;11.23;6.65;;;26.60;76.80;;;;;;4984141;28;20082;-52
2022/02/14 10:40:30;;;;;;;12.35;6.30;;;26.60;76.80;;;;;;4983420;28;20027;-48
2022/02/14 10:42:57;;;;;;;10.82;6.18;;;26.60;76.90;;;;;;4983841;28;20318;-53
2022/02/14 10:45:27;;;;;;;9.32;5.90;;;26.60;77.00;;;;;;4984453;28;20043;-49
2022/02/14 10:47:54;;;;;;;9.63;6.38;;;26.60;76.90;;;;;;4983203;28;20054;-45
2022/02/14 10:50:26;;;;;;;10.98;6.57;;;26.60;76.90;;;;;;4983671;28;20019;-49
2022/02/14 10:53:16;;;;;;;10.35;6.47;;;26.50;76.90;;;;;;4983857;28;20027;-46
2022/02/14 10:55:53;;;;;;;13.13;7.57;;;26.50;77.00;;;;;;4983701;28;20053;-46
2022/02/14 10:58:27;;;;;;;13.27;7.18;;;26.50;77.20;;;;;;4983859;28;20245;-52
2022/02/14 11:00:57;;;;;;;16.88;7.55;;;26.50;77.20;;;;;;4983527;28;20380;-46
2022/02/14 11:03:24;;;;;;;17.38;7.50;;;26.50;77.30;;;;;;4983602;28;20027;-46
2022/02/14 11:05:53;;;;;;;19.13;7.75;;;26.50;77.30;;;;;;4983874;28;20031;-46
2022/02/14 11:08:23;;;;;;;18.60;6.90;;;26.50;77.50;;;;;;4983284;28;20215;-46
2022/02/14 11:10:52;;;;;;;23.85;8.18;;;26.50;77.60;;;;;;4983671;28;20038;-46
2022/02/14 11:13:23;;;;;;;25.27;7.93;;;26.40;77.60;;;;;;4983599;28;20056;-47
2022/02/14 11:15:54;;;;;;;23.03;7.50;;;26.50;77.80;;;;;;4983131;28;20034;-49
2022/02/14 11:18:25;;;;;;;22.42;7.55;;;26.50;77.70;;;;;;4982723;28;20311;-50
2022/02/14 11:20:52;;;;;;;22.27;7.40;;;26.50;77.80;;;;;;4983670;28;20303;-51
2022/02/14 11:23:21;;;;;;;17.48;8.20;;;26.50;77.70;;;;;;4983571;28;20084;-52
2022/02/14 11:26:00;;;;;;;22.40;9.60;;;26.50;77.60;;;;;;4983398;28;20058;-52
2022/02/14 11:29:11;;;;;;;20.65;9.05;;;26.40;77.50;;;;;;4983147;28;20217;-49
2022/02/14 11:31:38;;;;;;;22.48;8.80;;;26.50;77.60;;;;;;4981842;28;20195;-51
2022/02/14 11:34:05;;;;;;;20.45;9.00;;;26.40;77.50;;;;;;4981589;28;20056;-49
2022/02/14 11:36:40;;;;;;;22.90;9.40;;;26.40;77.30;;;;;;4981867;28;20072;-51
2022/02/14 11:39:08;;;;;;;24.55;8.65;;;26.40;77.20;;;;;;4981880;28;20030;-51
2022/02/14 11:41:39;;;;;;;24.63;8.90;;;26.40;77.10;;;;;;4981816;28;20030;-51
2022/02/14 11:44:15;;;;;;;18.60;9.00;;;26.40;77.00;;;;;;4981390;28;20180;-50
2022/02/14 11:46:54;;;;;;;17.38;8.60;;;26.40;77.00;;;;;;4982821;28;20184;-50
2022/02/14 11:49:40;;;;;;;40.10;9.27;;;26.40;76.80;;;;;;4982924;28;20046;-54
2022/02/14 11:52:30;;;;;;;22.27;8.60;;;26.40;77.10;;;;;;4982697;28;20325;-48
2022/02/14 11:55:03;;;;;;;19.17;8.32;;;26.40;77.00;;;;;;4983236;28;20210;-54
2022/02/14 11:57:38;;;;;;;19.73;8.75;;;26.50;77.00;;;;;;4983090;28;20055;-52
2022/02/14 12:00:14;;;;;;;26.17;9.38;;;26.60;76.70;;;;;;4982767;28;20333;-49
2022/02/14 12:02:55;;;;;;;24.70;8.93;;;26.60;76.70;;;;;;4982645;28;20059;-51
2022/02/14 12:05:50;;;;;;;33.35;9.50;;;26.60;76.70;;;;;;4982756;28;20027;-51
2022/02/14 12:08:18;;;;;;;20.90;8.68;;;26.60;77.10;;;;;;4982518;28;20083;-49
2022/02/14 12:10:55;;;;;;;25.33;9.43;;;26.60;77.30;;;;;;4982886;28;20210;-49
2022/02/14 12:13:34;;;;;;;20.77;9.13;;;26.60;77.80;;;;;;4982495;28;20022;-47
2022/02/14 12:21:25;;;;;;;22.70;10.40;;;26.50;77.30;;;;;;4982936;28;20030;-47
2022/02/14 12:23:58;;;;;;;25.10;9.68;;;26.50;77.30;;;;;;4982613;28;20022;-49
2022/02/14 12:26:30;;;;;;;25.48;9.95;;;26.60;77.50;;;;;;4982720;28;20041;-49
2022/02/14 12:31:52;;;;;;;22.15;9.40;;;26.60;77.60;;;;;;4978836;28;20030;-45
2022/02/14 12:34:27;;;;;;;20.90;8.55;;;26.60;77.70;;;;;;4982080;28;20019;-52
2022/02/14 12:37:00;;;;;;;16.35;8.02;;;26.60;77.70;;;;;;4982479;28;20038;-47
2022/02/14 12:39:30;;;;;;;15.23;7.68;;;26.60;77.70;;;;;;4982557;28;20049;-51
2022/02/14 12:41:56;;;;;;;13.77;7.80;;;26.60;77.60;;;;;;4982565;28;20050;-47
2022/02/14 12:44:28;;;;;;;16.00;7.55;;;26.60;77.70;;;;;;4982228;28;20053;-49
2022/02/14 12:46:56;;;;;;;17.70;8.30;;;26.70;77.80;;;;;;4982360;28;20038;-52
2022/02/14 12:49:22;;;;;;;15.13;7.68;;;26.70;77.70;;;;;;4982021;28;20376;-48
2022/02/14 12:51:49;;;;;;;13.27;7.63;;;26.70;77.70;;;;;;4982125;28;20031;-48
2022/02/14 12:54:15;;;;;;;12.95;7.38;;;26.70;77.70;;;;;;4982577;28;20226;-50